Aeroporto :
LOGIN :

Iscrizione | Disclaimer

   EN    FR    IT 

 










Sommario :    VFR   VFR Marginale   IFR   IFR Intensivo   IFR Molto Intensivo
Visibilità : 
Base nubi : 
>= 8 km
>= 3000ft
5 / 8 km
1000 / 3000 ft
1500m / 5 km
500 / 1000 ft
800 / 1500m
200 / 500 ft
< 800m
< 200 ft
Simboli :   Temporali  Nebbia  Neve Forte  Precipitazioni Forti  Vento > 20 kt
SIGMETs :   Varie  Temporali  Ghiacco  Turbolenza  Onda orograficha  Ceneri Vulcaniche






- Altitudine del aeroporto : 289 ft


LFYR - Romorantin Pruniers

ULTIMO METAR :
  • 230200Z AUTO 10007KT CAVOK 11/10 Q0987

METARs OBSOLETI :
  • 230130Z AUTO 09007KT CAVOK 11/10 Q0988
  • 230100Z AUTO 11010KT 9999 ///TCU 11/10 Q0988
  • 230030Z AUTO 10010KT 9999 -RA NSC 10/10 Q0988
  • 230000Z AUTO 10008KT 9999 -RA FEW049 OVC064 10/09 Q0988
  • 222330Z AUTO 12009KT 9999 -RA FEW045 BKN060 BKN076 10/09 Q0988
  • 222300Z AUTO 11009KT 9999 -DZ BKN044 BKN050 OVC062 10/09 Q0988

Previsioni scadute.



MetMap, La meteo Aeronautica in un colpo d'occhio ! - Copyright ORBIFLY Dicembre 2007 - Disclaimer

ORBIFLY MET'MAP TEAM :

Programmazione e sviluppo : Alexandra Zaïnal
Concezione e sviluppo : Baudouin d'Aumeries
Co-Programmazione e sviluppo : Marc-Olivier Méhu
Supporto tecnico e logistico : Manuel Goepfert
Aiuto per la traduzione : Arnaldo La Scala

Contatto : metmap@orbifly.com




FONTI E CREDITI :

   NOAA